createdAt,value
2018-04-10T00:01:42.964Z,99.90
2018-04-10T00:04:10.421Z,99.90
2018-04-10T00:06:38.751Z,99.90
2018-04-10T00:09:06.980Z,99.90
2018-04-10T00:11:34.439Z,99.90
2018-04-10T00:14:01.915Z,99.90
2018-04-10T00:16:29.383Z,99.90
2018-04-10T00:18:56.860Z,99.90
2018-04-10T00:21:25.121Z,99.90
2018-04-10T00:23:52.593Z,99.90
2018-04-10T00:26:20.852Z,99.90
2018-04-10T00:28:48.324Z,99.90
2018-04-10T00:31:16.551Z,99.90
2018-04-10T00:33:44.029Z,99.90
2018-04-10T00:36:11.507Z,99.90
2018-04-10T00:38:38.979Z,99.90
2018-04-10T00:41:07.209Z,99.90
2018-04-10T00:43:34.711Z,99.90
2018-04-10T00:46:02.169Z,99.90
2018-04-10T00:48:30.560Z,99.90
2018-04-10T00:50:58.048Z,99.90
2018-04-10T00:53:35.335Z,99.90
2018-04-10T00:56:02.808Z,99.90
2018-04-10T00:58:30.268Z,99.90
2018-04-10T01:00:57.769Z,99.90
2018-04-10T01:03:25.223Z,99.90
2018-04-10T01:05:53.464Z,99.90
2018-04-10T01:08:20.933Z,99.90
2018-04-10T01:10:48.412Z,99.90
2018-04-10T01:13:15.871Z,99.90
2018-04-10T01:15:43.346Z,99.90
2018-04-10T01:18:11.568Z,99.90
2018-04-10T01:20:39.039Z,99.90
2018-04-10T01:23:06.508Z,99.90
2018-04-10T01:25:33.985Z,99.90
2018-04-10T01:28:01.452Z,99.90
2018-04-10T01:30:29.681Z,99.90
2018-04-10T01:32:57.148Z,99.90
2018-04-10T01:35:24.611Z,99.90
2018-04-10T01:37:52.075Z,99.90
2018-04-10T01:40:19.538Z,99.90
2018-04-10T01:42:47.011Z,99.90
2018-04-10T01:45:15.298Z,99.90
2018-04-10T01:47:42.729Z,99.90
2018-04-10T01:50:10.191Z,99.90
2018-04-10T01:52:37.668Z,99.90
2018-04-10T01:55:05.900Z,99.90
2018-04-10T01:57:33.388Z,99.90
2018-04-10T02:00:00.880Z,99.90
2018-04-10T02:02:28.352Z,99.90
2018-04-10T02:04:55.813Z,99.90
2018-04-10T02:07:23.279Z,99.90
2018-04-10T02:09:50.741Z,99.90
2018-04-10T02:12:18.219Z,99.90
2018-04-10T02:14:45.684Z,99.90
2018-04-10T02:17:13.915Z,99.90
2018-04-10T02:19:41.388Z,99.90
2018-04-10T02:22:08.855Z,99.90
2018-04-10T02:24:36.327Z,99.90
2018-04-10T02:27:03.809Z,99.90
2018-04-10T02:29:31.286Z,99.90
2018-04-10T02:31:59.531Z,99.90
2018-04-10T02:34:27.010Z,99.90
2018-04-10T02:36:54.470Z,99.90
2018-04-10T02:39:22.718Z,99.90
2018-04-10T02:41:50.188Z,99.90
2018-04-10T02:44:17.657Z,99.90
2018-04-10T02:46:45.901Z,99.90
2018-04-10T02:49:13.378Z,99.90
2018-04-10T02:51:40.850Z,99.90
2018-04-10T02:54:08.326Z,99.90
2018-04-10T02:56:36.568Z,99.90
2018-04-10T02:59:04.048Z,99.90
2018-04-10T03:01:32.284Z,99.90
2018-04-10T03:03:59.761Z,99.90
2018-04-10T03:06:27.241Z,99.90
2018-04-10T03:08:55.495Z,99.90
2018-04-10T03:11:22.960Z,99.90
2018-04-10T03:13:50.447Z,99.90
2018-04-10T03:16:18.714Z,99.90
2018-04-10T03:18:46.177Z,99.90
2018-04-10T03:21:14.415Z,99.90
2018-04-10T03:23:41.898Z,99.90
2018-04-10T03:26:09.364Z,99.90
2018-04-10T03:28:37.617Z,99.90
2018-04-10T03:31:05.099Z,99.90
2018-04-10T03:33:32.578Z,99.90
2018-04-10T03:36:00.051Z,99.90
2018-04-10T03:38:27.548Z,99.90
2018-04-10T03:40:55.018Z,99.90
2018-04-10T03:43:22.503Z,99.90
2018-04-10T03:45:50.732Z,99.90
2018-04-10T03:48:18.218Z,99.90
2018-04-10T03:50:45.694Z,99.90
2018-04-10T03:53:13.937Z,99.90
2018-04-10T03:55:41.451Z,99.90
2018-04-10T03:58:08.890Z,99.90
2018-04-10T04:00:37.120Z,99.90
2018-04-10T04:03:04.603Z,99.90
2018-04-10T04:05:32.071Z,99.90
2018-04-10T04:08:00.318Z,99.90
2018-04-10T04:10:27.789Z,99.90
2018-04-10T04:12:55.269Z,99.90
2018-04-10T04:15:23.513Z,99.90
2018-04-10T04:17:50.999Z,99.90
2018-04-10T04:20:31.105Z,99.90
2018-04-10T04:22:58.593Z,99.90
2018-04-10T04:25:26.074Z,99.90
2018-04-10T04:27:54.322Z,99.90
2018-04-10T04:30:21.796Z,99.90
2018-04-10T04:32:49.260Z,99.90
2018-04-10T04:35:16.745Z,99.90
2018-04-10T04:37:44.219Z,99.90
2018-04-10T04:40:11.693Z,99.90
2018-04-10T04:42:39.180Z,99.90
2018-04-10T04:45:06.666Z,99.90
2018-04-10T04:47:34.897Z,99.90
2018-04-10T04:50:02.391Z,99.90
2018-04-10T04:52:29.860Z,99.90
2018-04-10T04:54:58.108Z,99.90
2018-04-10T04:57:25.602Z,99.90
2018-04-10T04:59:53.841Z,99.90
2018-04-10T05:02:21.312Z,99.90
2018-04-10T05:04:49.569Z,99.90
2018-04-10T05:07:17.806Z,99.90
2018-04-10T05:09:45.282Z,99.90
2018-04-10T05:12:12.769Z,99.90
2018-04-10T05:14:40.269Z,99.90
2018-04-10T05:17:08.871Z,99.90
2018-04-10T05:19:36.348Z,99.90
2018-04-10T05:22:03.820Z,99.90
2018-04-10T05:24:31.298Z,99.90
2018-04-10T05:26:58.769Z,99.90
2018-04-10T05:29:27.017Z,99.90
2018-04-10T05:31:54.488Z,99.90
2018-04-10T05:34:21.961Z,99.90
2018-04-10T05:36:50.193Z,99.90
2018-04-10T05:39:17.673Z,99.90
2018-04-10T05:41:45.140Z,99.90
2018-04-10T05:44:12.608Z,99.90
2018-04-10T05:46:40.856Z,99.90
2018-04-10T05:49:08.341Z,99.90
2018-04-10T05:51:35.809Z,99.90
2018-04-10T05:54:04.049Z,99.90
2018-04-10T05:56:31.526Z,99.90
2018-04-10T05:58:59.005Z,99.90
2018-04-10T06:01:27.241Z,99.90
2018-04-10T06:03:54.754Z,99.90
2018-04-10T06:06:22.957Z,99.90
2018-04-10T06:08:50.442Z,99.90
2018-04-10T06:11:17.921Z,99.90
2018-04-10T06:13:45.409Z,99.90
2018-04-10T06:16:12.885Z,99.90
2018-04-10T06:18:40.373Z,99.90
2018-04-10T06:21:07.856Z,99.90
2018-04-10T06:23:35.326Z,99.90
2018-04-10T06:26:03.564Z,99.90
2018-04-10T06:28:31.047Z,99.90
2018-04-10T06:30:58.510Z,99.90
2018-04-10T06:33:25.989Z,99.90
2018-04-10T06:35:54.237Z,99.90
2018-04-10T06:38:21.715Z,99.90
2018-04-10T06:40:49.968Z,99.90
2018-04-10T06:43:17.444Z,99.90
2018-04-10T06:45:45.717Z,99.90
2018-04-10T06:48:13.197Z,99.90
2018-04-10T06:50:41.436Z,99.90
2018-04-10T06:53:08.908Z,99.90
2018-04-10T06:55:36.388Z,99.90
2018-04-10T06:58:04.613Z,99.90
2018-04-10T07:00:32.089Z,99.90
2018-04-10T07:02:59.564Z,99.90
2018-04-10T07:05:27.626Z,99.90
2018-04-10T07:07:55.119Z,99.90
2018-04-10T07:10:23.344Z,99.90
2018-04-10T07:12:50.820Z,99.90
2018-04-10T07:15:18.296Z,99.90
2018-04-10T07:17:46.534Z,99.90
2018-04-10T07:20:14.014Z,99.90
2018-04-10T07:22:41.500Z,99.90
2018-04-10T07:25:08.985Z,99.90
2018-04-10T07:27:36.452Z,99.90
2018-04-10T07:30:03.932Z,99.90
2018-04-10T07:32:31.417Z,99.90
2018-04-10T07:34:58.893Z,99.90
2018-04-10T07:37:26.377Z,99.90
2018-04-10T07:39:53.865Z,99.90
2018-04-10T07:42:21.338Z,99.90
2018-04-10T07:44:48.805Z,99.90
2018-04-10T07:47:16.281Z,99.90
2018-04-10T07:49:44.531Z,99.90
2018-04-10T07:52:12.007Z,99.90
2018-04-10T07:54:39.490Z,99.90
2018-04-10T07:57:06.974Z,99.90
2018-04-10T07:59:34.450Z,99.90
2018-04-10T08:02:02.685Z,99.90
2018-04-10T08:04:30.173Z,99.90
2018-04-10T08:06:57.638Z,99.90
2018-04-10T08:09:25.130Z,99.90
2018-04-10T08:11:52.609Z,99.90
2018-04-10T08:14:20.854Z,99.90
2018-04-10T08:16:48.322Z,99.90
2018-04-10T08:19:15.802Z,99.90
2018-04-10T08:21:44.033Z,99.90
2018-04-10T08:24:11.516Z,99.90
2018-04-10T08:26:38.993Z,99.90
2018-04-10T08:29:07.236Z,99.90
2018-04-10T08:31:34.709Z,99.90
2018-04-10T08:34:02.200Z,99.90
2018-04-10T08:36:29.686Z,99.90
2018-04-10T08:38:58.290Z,99.90
2018-04-10T08:41:25.772Z,99.90
2018-04-10T08:43:53.245Z,99.90
2018-04-10T08:46:21.476Z,99.90
2018-04-10T08:48:48.957Z,99.90
2018-04-10T08:51:16.428Z,99.90
2018-04-10T08:53:44.671Z,99.90
2018-04-10T08:56:12.155Z,99.90
2018-04-10T08:58:39.638Z,99.90
2018-04-10T09:01:07.217Z,99.90
2018-04-10T09:03:35.481Z,99.90
2018-04-10T09:06:02.956Z,99.90
2018-04-10T09:08:30.430Z,99.90
2018-04-10T09:10:57.905Z,99.90
2018-04-10T09:13:25.368Z,99.90
2018-04-10T09:15:52.858Z,99.90
2018-04-10T09:18:21.098Z,99.90
2018-04-10T09:20:55.022Z,99.90
2018-04-10T09:23:22.507Z,99.90
2018-04-10T09:25:51.647Z,99.90
2018-04-10T09:28:19.106Z,99.90
2018-04-10T09:30:46.580Z,99.90
2018-04-10T09:33:14.058Z,99.90
2018-04-10T09:35:41.545Z,99.90
2018-04-10T09:38:09.782Z,99.90
2018-04-10T09:40:37.270Z,99.90
2018-04-10T09:43:05.517Z,99.90
2018-04-10T09:45:32.989Z,99.90
2018-04-10T09:48:00.462Z,99.90
2018-04-10T09:50:28.705Z,99.90
2018-04-10T09:52:56.185Z,99.90
2018-04-10T09:55:23.672Z,99.90
2018-04-10T09:57:51.154Z,99.90
2018-04-10T10:00:38.085Z,99.90
2018-04-10T10:03:05.625Z,99.90
2018-04-10T10:05:33.098Z,99.90
2018-04-10T10:08:00.567Z,99.90
2018-04-10T10:10:28.050Z,99.90
2018-04-10T10:12:55.581Z,99.90
2018-04-10T10:15:23.062Z,99.90
2018-04-10T10:17:50.529Z,99.90
2018-04-10T10:20:18.018Z,99.90
2018-04-10T10:22:46.253Z,99.90
2018-04-10T10:25:13.730Z,99.90
2018-04-10T10:27:41.197Z,99.90
2018-04-10T10:30:09.457Z,99.90
2018-04-10T10:32:36.930Z,99.90
2018-04-10T10:35:05.177Z,99.90
2018-04-10T10:37:32.665Z,99.90
2018-04-10T10:40:00.926Z,99.90
2018-04-10T10:42:28.406Z,99.90
2018-04-10T10:44:56.655Z,99.90
2018-04-10T10:47:24.136Z,99.90
2018-04-10T10:49:52.373Z,99.90
2018-04-10T10:52:19.859Z,99.90
2018-04-10T10:54:47.350Z,99.90
2018-04-10T10:57:15.750Z,99.90
2018-04-10T10:59:43.211Z,99.90
2018-04-10T11:02:10.693Z,99.90
2018-04-10T11:04:38.174Z,99.90
2018-04-10T11:07:05.654Z,99.90
2018-04-10T11:09:33.931Z,99.90
2018-04-10T11:12:01.381Z,99.90
2018-04-10T11:14:29.608Z,99.90
2018-04-10T11:16:57.094Z,99.90
2018-04-10T11:19:24.578Z,99.90
2018-04-10T11:21:52.830Z,99.90
2018-04-10T11:24:20.310Z,99.90
2018-04-10T11:26:48.553Z,99.90
2018-04-10T11:29:16.027Z,99.90
2018-04-10T11:31:43.512Z,99.90
2018-04-10T11:34:11.757Z,99.90
2018-04-10T11:36:39.242Z,99.90
2018-04-10T11:39:07.491Z,99.90
2018-04-10T11:41:34.967Z,99.90
2018-04-10T11:44:02.437Z,99.90
2018-04-10T11:46:30.680Z,99.90
2018-04-10T11:48:58.147Z,99.90
2018-04-10T11:51:25.627Z,99.90
2018-04-10T11:53:53.101Z,99.90
2018-04-10T11:56:21.348Z,99.90
2018-04-10T11:58:48.817Z,99.90
2018-04-10T12:01:16.301Z,99.90
2018-04-10T12:03:43.777Z,99.90
2018-04-10T12:06:11.254Z,99.90
2018-04-10T12:08:38.726Z,99.90
2018-04-10T12:11:06.974Z,99.90
2018-04-10T12:13:34.451Z,99.90
2018-04-10T12:16:01.944Z,99.90
2018-04-10T12:18:29.422Z,99.90
2018-04-10T12:20:57.669Z,99.90
2018-04-10T12:23:25.145Z,99.90
2018-04-10T12:25:53.394Z,99.90
2018-04-10T12:28:21.634Z,99.90
2018-04-10T12:30:49.104Z,99.90
2018-04-10T12:33:16.573Z,99.90
2018-04-10T12:35:44.061Z,99.90
2018-04-10T12:38:11.545Z,99.90
2018-04-10T12:40:39.788Z,99.90
2018-04-10T12:43:07.300Z,99.90
2018-04-10T12:45:34.777Z,99.90
2018-04-10T12:48:02.261Z,99.90
2018-04-10T12:50:29.749Z,99.90
2018-04-10T12:52:57.983Z,99.90
2018-04-10T12:55:25.459Z,99.90
2018-04-10T12:57:52.934Z,99.90
2018-04-10T13:00:20.414Z,99.90
2018-04-10T13:02:47.895Z,99.90
2018-04-10T13:05:15.368Z,99.90
2018-04-10T13:07:43.368Z,99.90
2018-04-10T13:10:10.850Z,99.90
2018-04-10T13:12:39.102Z,99.90
2018-04-10T13:15:06.591Z,99.90
2018-04-10T13:17:34.829Z,99.90
2018-04-10T13:20:02.306Z,99.90
2018-04-10T13:22:29.788Z,99.90
2018-04-10T13:24:58.025Z,99.90
2018-04-10T13:27:25.501Z,99.90
2018-04-10T13:29:52.997Z,99.90
2018-04-10T13:32:20.492Z,99.90
2018-04-10T13:34:47.954Z,99.90
2018-04-10T13:37:15.433Z,99.90
2018-04-10T13:39:42.906Z,99.90
2018-04-10T13:42:11.153Z,99.90
2018-04-10T13:44:38.628Z,99.90
2018-04-10T13:47:06.100Z,99.90
2018-04-10T13:49:34.339Z,99.90
2018-04-10T13:52:01.817Z,99.90
2018-04-10T13:54:29.286Z,99.90
2018-04-10T13:56:56.795Z,99.90
2018-04-10T13:59:24.292Z,99.90
2018-04-10T14:01:51.766Z,99.90
2018-04-10T14:04:19.244Z,99.90
2018-04-10T14:06:47.475Z,99.90
2018-04-10T14:09:16.486Z,99.90
2018-04-10T14:11:43.983Z,99.90
2018-04-10T14:14:11.494Z,99.80
2018-04-10T14:16:38.978Z,99.90
2018-04-10T14:19:07.208Z,99.90
2018-04-10T14:21:34.696Z,99.90
2018-04-10T14:24:02.183Z,99.90
2018-04-10T14:26:30.796Z,99.70
2018-04-10T14:28:58.265Z,99.70
2018-04-10T14:31:25.741Z,99.60
2018-04-10T14:33:53.212Z,99.20
2018-04-10T14:36:20.698Z,99.60
2018-04-10T14:38:48.934Z,99.50
2018-04-10T14:41:16.411Z,99.50
2018-04-10T14:43:43.930Z,99.80
2018-04-10T14:46:11.410Z,99.60
2018-04-10T14:48:38.883Z,99.80
2018-04-10T14:51:06.375Z,99.90
2018-04-10T14:53:34.658Z,98.90
2018-04-10T14:56:02.105Z,98.90
2018-04-10T14:58:30.348Z,98.90
2018-04-10T15:00:57.819Z,98.90
2018-04-10T15:03:25.302Z,98.40
2018-04-10T15:05:53.543Z,98.70
2018-04-10T15:08:21.019Z,98.60
2018-04-10T15:10:49.328Z,98.90
2018-04-10T15:13:17.578Z,99.00
2018-04-10T15:15:45.051Z,98.90
2018-04-10T15:18:13.298Z,97.80
2018-04-10T15:20:40.774Z,97.80
2018-04-10T15:23:08.261Z,97.80
2018-04-10T15:25:35.739Z,98.60
2018-04-10T15:28:04.002Z,98.30
2018-04-10T15:30:31.483Z,97.50
2018-04-10T15:32:58.967Z,97.10
2018-04-10T15:35:26.433Z,97.50
2018-04-10T15:37:53.914Z,97.00
2018-04-10T15:40:22.169Z,97.60
2018-04-10T15:42:49.653Z,97.60
2018-04-10T15:45:17.894Z,97.30
2018-04-10T15:47:45.382Z,97.30
2018-04-10T15:50:13.621Z,97.30
2018-04-10T15:52:41.095Z,97.10
2018-04-10T15:55:08.566Z,97.10
2018-04-10T15:57:36.048Z,97.80
2018-04-10T16:00:04.280Z,97.00
2018-04-10T16:02:31.762Z,97.00
2018-04-10T16:04:59.229Z,97.10
2018-04-10T16:07:27.478Z,97.50
2018-04-10T16:09:54.960Z,97.10
2018-04-10T16:12:22.468Z,97.00
2018-04-10T16:14:50.673Z,97.10
2018-04-10T16:17:18.166Z,97.10
2018-04-10T16:19:46.410Z,97.60
2018-04-10T16:22:13.890Z,97.60
2018-04-10T16:24:41.363Z,97.60
2018-04-10T16:27:09.646Z,97.60
2018-04-10T16:29:37.073Z,97.60
2018-04-10T16:32:04.557Z,97.70
2018-04-10T16:34:32.790Z,98.30
2018-04-10T16:37:00.284Z,98.20
2018-04-10T16:39:28.517Z,98.50
2018-04-10T16:41:56.025Z,98.40
2018-04-10T16:44:24.257Z,98.90
2018-04-10T16:46:51.738Z,98.90
2018-04-10T16:49:19.212Z,98.60
2018-04-10T16:51:48.888Z,98.50
2018-04-10T16:54:16.443Z,98.40
2018-04-10T16:56:43.957Z,98.80
2018-04-10T16:59:12.212Z,98.70
2018-04-10T17:01:39.704Z,98.70
2018-04-10T17:04:07.201Z,98.60
2018-04-10T17:06:34.673Z,98.90
2018-04-10T17:09:02.162Z,98.70
2018-04-10T17:11:30.690Z,98.50
2018-04-10T17:13:58.170Z,98.50
2018-04-10T17:16:25.652Z,98.50
2018-04-10T17:18:53.139Z,98.70
2018-04-10T17:21:21.370Z,98.60
2018-04-10T17:23:48.847Z,98.60
2018-04-10T17:26:16.310Z,99.10
2018-04-10T17:28:44.597Z,98.00
2018-04-10T17:31:12.833Z,98.20
2018-04-10T17:33:40.317Z,98.20
2018-04-10T17:36:07.786Z,98.30
2018-04-10T17:38:36.034Z,97.90
2018-04-10T17:41:03.531Z,97.90
2018-04-10T17:43:31.765Z,98.20
2018-04-10T17:45:59.246Z,98.20
2018-04-10T17:48:26.727Z,97.80
2018-04-10T17:50:54.962Z,98.20
2018-04-10T17:53:22.452Z,98.20
2018-04-10T17:55:50.698Z,98.40
2018-04-10T17:58:18.183Z,98.40
2018-04-10T18:00:45.653Z,98.60
2018-04-10T18:03:14.263Z,98.60
2018-04-10T18:05:41.712Z,98.60
2018-04-10T18:08:09.192Z,99.00
2018-04-10T18:10:36.670Z,98.90
2018-04-10T18:13:04.133Z,99.30
2018-04-10T18:15:31.612Z,99.50
2018-04-10T18:17:59.084Z,99.70
2018-04-10T18:20:27.326Z,99.90
2018-04-10T18:22:54.960Z,99.90
2018-04-10T18:25:22.441Z,99.90
2018-04-10T18:27:49.922Z,99.90
2018-04-10T18:30:17.398Z,99.90
2018-04-10T18:32:45.642Z,99.90
2018-04-10T18:35:13.121Z,99.90
2018-04-10T18:37:40.597Z,99.90
2018-04-10T18:40:09.111Z,99.90
2018-04-10T18:42:36.585Z,99.90
2018-04-10T18:45:04.053Z,99.90
2018-04-10T18:47:31.532Z,99.90
2018-04-10T18:49:59.006Z,99.90
2018-04-10T18:52:27.248Z,99.90
2018-04-10T18:54:54.710Z,99.90
2018-04-10T18:57:22.209Z,99.90
2018-04-10T18:59:50.446Z,99.90
2018-04-10T19:02:17.910Z,99.90
2018-04-10T19:04:45.389Z,99.90
2018-04-10T19:07:13.657Z,99.90
2018-04-10T19:09:41.133Z,99.90
2018-04-10T19:12:09.367Z,99.90
2018-04-10T19:14:36.842Z,99.90
2018-04-10T19:17:04.320Z,99.90
2018-04-10T19:19:31.791Z,99.90
2018-04-10T19:22:00.033Z,99.90
2018-04-10T19:24:27.525Z,99.90
2018-04-10T19:26:55.757Z,99.90
2018-04-10T19:29:23.239Z,99.90
2018-04-10T19:31:50.713Z,99.90
2018-04-10T19:34:18.980Z,99.90
2018-04-10T19:36:46.449Z,99.90
2018-04-10T19:39:14.684Z,99.90
2018-04-10T19:41:42.166Z,99.90
2018-04-10T19:44:09.636Z,99.90
2018-04-10T19:46:37.145Z,99.90
2018-04-10T19:49:04.662Z,99.90
2018-04-10T19:51:32.893Z,99.90
2018-04-10T19:54:00.409Z,99.90
2018-04-10T19:56:28.653Z,99.90
2018-04-10T19:58:56.140Z,99.90
2018-04-10T20:01:24.368Z,99.90
2018-04-10T20:03:51.844Z,99.90
2018-04-10T20:06:19.308Z,99.90
2018-04-10T20:08:46.785Z,99.90
2018-04-10T20:11:15.046Z,99.90
2018-04-10T20:13:42.530Z,99.90
2018-04-10T20:16:10.764Z,99.90
2018-04-10T20:18:38.246Z,99.90
2018-04-10T20:21:06.273Z,99.90
2018-04-10T20:23:33.754Z,99.90
2018-04-10T20:26:01.223Z,99.90
2018-04-10T20:28:28.721Z,99.90
2018-04-10T20:30:56.604Z,99.90
2018-04-10T20:33:24.082Z,99.90
2018-04-10T20:35:51.571Z,99.90
2018-04-10T20:38:19.109Z,99.90
2018-04-10T20:40:46.577Z,99.90
2018-04-10T20:43:14.063Z,99.90
2018-04-10T20:45:42.309Z,99.90
2018-04-10T20:48:09.793Z,99.90
2018-04-10T20:50:37.293Z,99.90
2018-04-10T20:53:04.784Z,99.90
2018-04-10T20:55:32.294Z,99.90
2018-04-10T20:57:59.876Z,99.90
2018-04-10T21:00:27.336Z,99.90
2018-04-10T21:02:54.816Z,99.90
2018-04-10T21:05:23.064Z,99.90
2018-04-10T21:07:50.532Z,99.90
2018-04-10T21:10:18.030Z,99.90
2018-04-10T21:12:45.489Z,99.90
2018-04-10T21:15:13.020Z,99.90
2018-04-10T21:17:40.481Z,99.90
2018-04-10T21:20:07.954Z,99.90
2018-04-10T21:22:36.078Z,99.90
2018-04-10T21:25:03.554Z,99.90
2018-04-10T21:27:31.040Z,99.90
2018-04-10T21:29:58.535Z,99.90
2018-04-10T21:32:26.790Z,99.90
2018-04-10T21:34:54.257Z,99.90
2018-04-10T21:37:21.766Z,99.90
2018-04-10T21:39:49.229Z,99.90
2018-04-10T21:42:16.705Z,99.90
2018-04-10T21:44:44.582Z,99.90
2018-04-10T21:47:12.029Z,99.90
2018-04-10T21:49:39.508Z,99.90
2018-04-10T21:52:06.994Z,99.90
2018-04-10T21:54:35.238Z,99.90
2018-04-10T21:57:02.708Z,99.90
2018-04-10T21:59:30.198Z,99.90
2018-04-10T22:01:58.429Z,99.90
2018-04-10T22:04:26.683Z,99.90
2018-04-10T22:06:54.153Z,99.90
2018-04-10T22:09:21.625Z,99.90
2018-04-10T22:11:49.100Z,99.90
2018-04-10T22:14:16.572Z,99.90
2018-04-10T22:16:44.814Z,99.90
2018-04-10T22:19:12.285Z,99.90
2018-04-10T22:21:40.032Z,99.90
2018-04-10T22:24:07.677Z,99.90
2018-04-10T22:26:35.132Z,99.90
2018-04-10T22:29:02.616Z,99.90
2018-04-10T22:31:30.090Z,99.90
2018-04-10T22:33:57.542Z,99.90
2018-04-10T22:36:25.773Z,99.90
2018-04-10T22:38:53.254Z,99.90
2018-04-10T22:41:20.726Z,99.90
2018-04-10T22:43:48.977Z,99.90
2018-04-10T22:46:16.458Z,99.90
2018-04-10T22:48:43.934Z,99.90
2018-04-10T22:51:12.213Z,99.90
2018-04-10T22:53:40.462Z,99.90
2018-04-10T22:56:07.946Z,99.90
2018-04-10T22:58:36.193Z,99.90
2018-04-10T23:01:03.700Z,99.90
2018-04-10T23:03:31.182Z,99.90
2018-04-10T23:05:58.664Z,99.90
2018-04-10T23:08:26.134Z,99.90
2018-04-10T23:10:53.621Z,99.90
2018-04-10T23:13:21.862Z,99.90
2018-04-10T23:15:49.362Z,99.90
2018-04-10T23:18:16.827Z,99.90
2018-04-10T23:20:45.073Z,99.90
2018-04-10T23:23:12.546Z,99.90
2018-04-10T23:25:40.012Z,99.90
2018-04-10T23:28:07.485Z,99.90
2018-04-10T23:30:34.965Z,99.90
2018-04-10T23:33:03.198Z,99.90
2018-04-10T23:35:30.701Z,99.90
2018-04-10T23:37:58.180Z,99.90
2018-04-10T23:40:25.675Z,99.90
2018-04-10T23:42:53.153Z,99.90
2018-04-10T23:45:20.629Z,99.90
2018-04-10T23:47:48.871Z,99.90
2018-04-10T23:50:17.176Z,99.90
2018-04-10T23:52:44.645Z,99.90
2018-04-10T23:55:12.887Z,99.90
2018-04-10T23:57:40.389Z,99.90
